createdAt,value
2023-11-07T00:04:02.492Z,1.80
2023-11-07T00:09:15.071Z,2.30
2023-11-07T00:15:01.552Z,1.90
2023-11-07T00:20:18.732Z,2.00
2023-11-07T00:25:22.354Z,2.00
2023-11-07T00:30:26.016Z,2.00
2023-11-07T00:35:29.618Z,2.10
2023-11-07T00:40:41.306Z,2.00
2023-11-07T00:46:02.646Z,2.10
2023-11-07T00:51:09.677Z,2.60
2023-11-07T00:56:17.910Z,2.50
2023-11-07T01:01:34.798Z,2.50
2023-11-07T01:06:47.830Z,2.60
2023-11-07T01:11:52.250Z,3.10
2023-11-07T01:16:55.999Z,3.70
2023-11-07T01:22:05.174Z,3.80
2023-11-07T01:27:09.048Z,3.50
2023-11-07T01:32:22.216Z,3.60
2023-11-07T01:37:46.163Z,3.80
2023-11-07T01:42:50.035Z,4.00
2023-11-07T01:47:57.173Z,4.10
2023-11-07T01:53:02.607Z,3.80
2023-11-07T01:58:11.134Z,4.70
2023-11-07T02:03:35.300Z,3.60
2023-11-07T02:08:39.107Z,4.00
2023-11-07T02:13:51.680Z,3.60
2023-11-07T02:18:55.336Z,4.30
2023-11-07T02:24:08.122Z,3.90
2023-11-07T02:29:11.620Z,4.30
2023-11-07T02:34:15.433Z,5.00
2023-11-07T02:39:19.307Z,4.20
2023-11-07T02:44:24.982Z,3.30
2023-11-07T02:49:28.958Z,3.50
2023-11-07T02:54:32.623Z,4.00
2023-11-07T02:59:47.854Z,3.70
2023-11-07T03:04:56.122Z,3.60
2023-11-07T03:09:59.864Z,4.10
2023-11-07T03:15:03.892Z,3.30
2023-11-07T03:20:11.526Z,3.90
2023-11-07T03:25:15.225Z,4.10
2023-11-07T03:30:19.266Z,2.70
2023-11-07T03:35:28.669Z,3.20
2023-11-07T03:40:32.844Z,3.40
2023-11-07T03:45:45.478Z,4.20
2023-11-07T03:50:55.004Z,3.60
2023-11-07T03:55:59.636Z,3.60
2023-11-07T04:01:04.421Z,3.90
2023-11-07T04:06:28.459Z,3.60
2023-11-07T04:11:52.573Z,3.50
2023-11-07T04:17:06.113Z,3.30
2023-11-07T04:22:17.266Z,3.20
2023-11-07T04:27:20.890Z,3.10
2023-11-07T04:33:07.562Z,3.20
2023-11-07T04:38:25.779Z,4.80
2023-11-07T04:43:56.743Z,8.60
2023-11-07T04:49:10.997Z,3.50
2023-11-07T04:54:17.597Z,3.10
2023-11-07T04:59:21.317Z,9.90
2023-11-07T05:04:24.954Z,5.10
2023-11-07T05:09:37.886Z,3.80
2023-11-07T05:14:41.642Z,3.40
2023-11-07T05:19:45.634Z,3.10
2023-11-07T05:24:49.155Z,3.30
2023-11-07T05:29:56.133Z,4.30
2023-11-07T05:34:59.675Z,3.20
2023-11-07T05:40:06.325Z,3.70
2023-11-07T05:45:11.977Z,4.60
2023-11-07T05:50:16.363Z,3.80
2023-11-07T05:55:20.520Z,8.00
2023-11-07T06:00:24.359Z,5.40
2023-11-07T06:05:35.693Z,4.00
2023-11-07T06:10:42.304Z,2.80
2023-11-07T06:15:51.335Z,3.70
2023-11-07T06:21:15.368Z,3.80
2023-11-07T06:26:22.859Z,2.60
2023-11-07T06:31:28.381Z,3.40
2023-11-07T06:36:47.117Z,4.30
2023-11-07T06:41:52.673Z,5.10
2023-11-07T06:46:57.222Z,5.10
2023-11-07T06:52:01.323Z,8.30
2023-11-07T06:57:13.997Z,9.30
2023-11-07T07:02:29.158Z,4.70
2023-11-07T07:07:35.830Z,8.30
2023-11-07T07:12:40.475Z,4.40
2023-11-07T07:17:44.120Z,13.00
2023-11-07T07:22:48.418Z,6.30
2023-11-07T07:27:56.431Z,4.30
2023-11-07T07:33:01.598Z,5.00
2023-11-07T07:38:05.432Z,7.80
2023-11-07T07:43:12.564Z,5.80
2023-11-07T07:48:16.292Z,4.40
2023-11-07T07:53:22.950Z,3.50
2023-11-07T07:58:26.644Z,4.60
2023-11-07T08:03:33.977Z,4.80
2023-11-07T08:09:04.113Z,4.50
2023-11-07T08:14:17.138Z,5.40
2023-11-07T08:19:38.186Z,4.50
2023-11-07T08:24:53.686Z,4.40
2023-11-07T08:30:00.817Z,4.30
2023-11-07T08:35:09.092Z,4.00
2023-11-07T08:40:26.468Z,5.80
2023-11-07T08:45:38.373Z,5.60
2023-11-07T08:50:47.178Z,5.10
2023-11-07T08:55:51.959Z,3.70
2023-11-07T09:00:58.657Z,3.30
2023-11-07T09:06:06.714Z,4.40
2023-11-07T09:11:18.382Z,3.90
2023-11-07T09:16:26.561Z,2.80
2023-11-07T09:21:30.433Z,3.10
2023-11-07T09:26:36.406Z,3.40
2023-11-07T09:31:46.677Z,2.40
2023-11-07T09:36:57.572Z,2.70
2023-11-07T09:42:09.968Z,2.60
2023-11-07T09:47:17.918Z,2.60
2023-11-07T09:52:28.871Z,1.90
2023-11-07T09:57:43.462Z,3.00
2023-11-07T10:02:47.285Z,2.60
2023-11-07T10:07:51.214Z,2.80
2023-11-07T10:13:08.574Z,3.80
2023-11-07T10:18:20.744Z,4.70
2023-11-07T10:23:33.847Z,3.60
2023-11-07T10:28:46.431Z,2.90
2023-11-07T10:33:59.378Z,2.80
2023-11-07T10:39:03.798Z,3.30
2023-11-07T10:49:23.214Z,3.80
2023-11-07T10:54:44.673Z,3.20
2023-11-07T11:00:19.726Z,3.50
2023-11-07T11:05:45.318Z,4.80
2023-11-07T11:10:53.944Z,4.20
2023-11-07T11:16:01.852Z,4.90
2023-11-07T11:21:18.197Z,3.20
2023-11-07T11:26:55.988Z,4.20
2023-11-07T11:32:29.552Z,4.40
2023-11-07T11:38:13.538Z,4.40
2023-11-07T11:43:19.172Z,3.10
2023-11-07T11:48:52.495Z,2.90
2023-11-07T11:54:01.104Z,5.10
2023-11-07T11:59:12.547Z,2.30
2023-11-07T12:04:42.228Z,1.80
2023-11-07T12:09:51.604Z,2.90
2023-11-07T12:14:55.848Z,1.90
2023-11-07T12:20:08.651Z,2.50
2023-11-07T12:25:21.666Z,3.20
2023-11-07T12:30:26.276Z,2.90
2023-11-07T12:35:32.525Z,3.30
2023-11-07T12:40:38.185Z,9.90
2023-11-07T12:45:47.854Z,11.40
2023-11-07T12:50:51.922Z,5.60
2023-11-07T13:01:09.303Z,7.40
2023-11-07T13:06:20.791Z,6.20
2023-11-07T13:11:28.048Z,6.00
2023-11-07T13:16:31.593Z,7.00
2023-11-07T13:21:38.052Z,4.00
2023-11-07T13:26:42.083Z,2.60
2023-11-07T13:31:49.030Z,5.00
2023-11-07T13:37:01.331Z,5.20
2023-11-07T13:42:16.512Z,4.70
2023-11-07T13:47:25.339Z,3.90
2023-11-07T13:52:28.957Z,5.30
2023-11-07T13:57:32.597Z,2.50
2023-11-07T14:02:36.415Z,2.30
2023-11-07T14:12:45.595Z,3.10
2023-11-07T14:17:49.156Z,2.60
2023-11-07T14:22:54.094Z,2.90
2023-11-07T14:28:00.435Z,2.50
2023-11-07T14:33:05.443Z,10.70
2023-11-07T14:38:10.706Z,8.00
2023-11-07T14:43:17.442Z,4.40
2023-11-07T14:48:23.561Z,4.40
2023-11-07T14:53:28.445Z,4.20
2023-11-07T14:58:31.899Z,2.80
2023-11-07T15:03:35.683Z,3.80
2023-11-07T15:08:39.802Z,5.90
2023-11-07T15:13:49.500Z,5.10
2023-11-07T15:18:54.205Z,4.00
2023-11-07T15:23:58.069Z,3.40
2023-11-07T15:29:01.680Z,3.00
2023-11-07T15:34:06.487Z,3.70
2023-11-07T15:39:16.379Z,3.40
2023-11-07T15:44:21.450Z,3.30
2023-11-07T15:49:25.385Z,4.00
2023-11-07T15:54:37.908Z,3.60
2023-11-07T15:59:41.831Z,6.20
2023-11-07T16:04:50.777Z,6.40
2023-11-07T16:09:54.638Z,17.20
2023-11-07T16:14:58.467Z,23.70
2023-11-07T16:20:06.439Z,16.40
2023-11-07T16:25:10.371Z,8.80
2023-11-07T16:30:16.971Z,6.30
2023-11-07T16:35:20.612Z,7.40
2023-11-07T16:40:24.711Z,4.90
2023-11-07T16:45:28.569Z,4.20
2023-11-07T16:50:32.468Z,4.30
2023-11-07T16:55:36.281Z,3.40
2023-11-07T17:00:39.899Z,4.50
2023-11-07T17:05:52.471Z,4.30
2023-11-07T17:10:55.990Z,3.30
2023-11-07T17:16:00.604Z,6.60
2023-11-07T17:21:04.475Z,7.40
2023-11-07T17:26:08.295Z,5.50
2023-11-07T17:31:13.905Z,4.80
2023-11-07T17:36:35.790Z,4.10
2023-11-07T17:41:39.677Z,4.50
2023-11-07T17:46:43.746Z,3.90
2023-11-07T17:51:50.059Z,3.70
2023-11-07T17:56:54.122Z,3.90
2023-11-07T18:02:08.741Z,4.70
2023-11-07T18:07:14.370Z,5.20
2023-11-07T18:12:28.412Z,6.00
2023-11-07T18:17:52.491Z,5.30
2023-11-07T18:22:57.282Z,5.20
2023-11-07T18:28:02.387Z,5.80
2023-11-07T18:33:06.324Z,6.00
2023-11-07T18:38:10.098Z,5.20
2023-11-07T18:43:13.758Z,6.40
2023-11-07T18:48:17.824Z,4.00
2023-11-07T18:53:30.879Z,5.40
2023-11-07T18:58:41.238Z,5.10
2023-11-07T19:03:55.301Z,5.10
2023-11-07T19:08:59.382Z,5.40
2023-11-07T19:14:11.917Z,6.00
2023-11-07T19:19:15.535Z,5.80
2023-11-07T19:24:29.388Z,4.80
2023-11-07T19:29:32.989Z,5.70
2023-11-07T19:34:39.885Z,6.50
2023-11-07T19:39:44.544Z,6.30
2023-11-07T19:44:51.936Z,6.60
2023-11-07T19:49:55.761Z,5.70
2023-11-07T19:54:59.448Z,6.20
2023-11-07T20:00:03.620Z,5.70
2023-11-07T20:10:32.776Z,5.70
2023-11-07T20:15:36.310Z,5.70
2023-11-07T20:20:41.541Z,5.60
2023-11-07T20:25:45.163Z,5.80
2023-11-07T20:30:48.982Z,6.60
2023-11-07T20:35:52.435Z,5.30
2023-11-07T20:40:57.145Z,5.50
2023-11-07T20:46:01.915Z,6.50
2023-11-07T20:51:07.062Z,6.80
2023-11-07T20:56:12.435Z,6.70
2023-11-07T21:01:17.754Z,5.10
2023-11-07T21:06:21.372Z,5.30
2023-11-07T21:11:25.001Z,6.00
2023-11-07T21:16:28.634Z,4.90
2023-11-07T21:21:32.559Z,5.60
2023-11-07T21:26:39.337Z,5.80
2023-11-07T21:31:43.268Z,5.20
2023-11-07T21:36:46.930Z,6.00
2023-11-07T21:41:50.611Z,5.60
2023-11-07T21:46:55.974Z,5.60
2023-11-07T21:51:59.792Z,6.20
2023-11-07T21:57:06.099Z,6.70
2023-11-07T22:02:10.152Z,6.10
2023-11-07T22:07:45.464Z,5.80
2023-11-07T22:12:56.749Z,5.50
2023-11-07T22:18:05.839Z,6.00
2023-11-07T22:23:19.261Z,5.80
2023-11-07T22:28:43.484Z,5.10
2023-11-07T22:33:53.727Z,5.30
2023-11-07T22:39:02.985Z,5.70
2023-11-07T22:44:28.828Z,5.40
2023-11-07T22:49:51.806Z,4.90
2023-11-07T22:55:04.229Z,4.80
2023-11-07T23:00:12.228Z,5.70
2023-11-07T23:05:21.351Z,6.50
2023-11-07T23:10:25.012Z,5.80
2023-11-07T23:15:28.796Z,5.50
2023-11-07T23:20:41.994Z,5.30
2023-11-07T23:25:45.599Z,5.10
2023-11-07T23:30:50.418Z,6.10
2023-11-07T23:36:17.252Z,5.60
2023-11-07T23:41:33.314Z,6.10
2023-11-07T23:46:45.950Z,6.00
2023-11-07T23:51:55.098Z,5.50
2023-11-07T23:57:04.963Z,5.60
